createdAt,value
2023-03-27T00:02:07.034Z,101303.72
2023-03-27T00:04:38.427Z,101301.47
2023-03-27T00:07:10.947Z,101314.97
2023-03-27T00:09:45.867Z,101315.16
2023-03-27T00:12:18.132Z,101311.69
2023-03-27T00:14:50.716Z,101310.63
2023-03-27T00:17:23.995Z,101312.50
2023-03-27T00:19:56.186Z,101311.44
2023-03-27T00:22:27.784Z,101302.22
2023-03-27T00:25:00.147Z,101315.91
2023-03-27T00:27:34.019Z,101328.06
2023-03-27T00:30:08.147Z,101314.19
2023-03-27T00:32:40.177Z,101316.91
2023-03-27T00:35:17.191Z,101308.94
2023-03-27T00:37:50.060Z,101312.16
2023-03-27T00:40:22.614Z,101310.19
2023-03-27T00:42:59.267Z,101318.66
2023-03-27T00:45:35.051Z,101315.84
2023-03-27T00:48:09.513Z,101315.50
2023-03-27T00:50:45.402Z,101319.38
2023-03-27T00:53:21.728Z,101316.47
2023-03-27T00:55:55.927Z,101300.34
2023-03-27T00:58:33.390Z,101291.19
2023-03-27T01:01:06.836Z,101298.13
2023-03-27T01:03:40.837Z,101301.16
2023-03-27T01:06:17.496Z,101302.56
2023-03-27T01:08:54.555Z,101294.44
2023-03-27T01:11:29.993Z,101289.84
2023-03-27T01:14:15.174Z,101291.34
2023-03-27T01:16:58.871Z,101285.94
2023-03-27T01:20:08.721Z,101284.38
2023-03-27T01:22:42.206Z,101283.72
2023-03-27T01:25:29.212Z,101282.91
2023-03-27T01:28:13.935Z,101277.38
2023-03-27T01:31:03.556Z,101274.38
2023-03-27T01:33:58.224Z,101277.22
2023-03-27T01:36:53.388Z,101273.56
2023-03-27T01:40:11.917Z,101275.78
2023-03-27T01:43:01.796Z,101267.38
2023-03-27T01:45:50.144Z,101267.88
2023-03-27T01:48:25.045Z,101270.72
2023-03-27T01:51:12.122Z,101267.00
2023-03-27T01:53:55.209Z,101260.09
2023-03-27T01:56:54.131Z,101257.59
2023-03-27T01:59:28.765Z,101256.97
2023-03-27T02:02:09.770Z,101244.53
2023-03-27T02:04:48.941Z,101230.56
2023-03-27T02:07:24.640Z,101222.88
2023-03-27T02:10:00.399Z,101212.28
2023-03-27T02:12:36.634Z,101224.03
2023-03-27T02:15:24.129Z,101214.22
2023-03-27T02:18:06.703Z,101211.19
2023-03-27T02:20:40.776Z,101189.28
2023-03-27T02:23:16.049Z,101211.00
2023-03-27T02:25:48.811Z,101206.94
2023-03-27T02:28:47.848Z,101202.75
2023-03-27T02:31:32.386Z,101201.88
2023-03-27T02:34:36.080Z,101186.75
2023-03-27T02:37:45.846Z,101191.00
2023-03-27T02:40:39.942Z,101188.03
2023-03-27T02:43:45.022Z,101182.88
2023-03-27T02:46:55.891Z,101163.41
2023-03-27T02:49:59.819Z,101178.63
2023-03-27T02:52:52.783Z,101178.09
2023-03-27T02:55:29.859Z,101174.44
2023-03-27T02:58:05.701Z,101174.00
2023-03-27T03:00:50.305Z,101176.88
2023-03-27T03:03:47.227Z,101169.25
2023-03-27T03:06:38.989Z,101184.00
2023-03-27T03:09:11.324Z,101175.56
2023-03-27T03:11:51.733Z,101161.34
2023-03-27T03:14:31.345Z,101165.88
2023-03-27T03:17:03.546Z,101160.47
2023-03-27T03:19:35.273Z,101162.03
2023-03-27T03:22:08.178Z,101166.78
2023-03-27T03:24:43.522Z,101160.94
2023-03-27T03:27:24.042Z,101153.44
2023-03-27T03:30:09.072Z,101151.72
2023-03-27T03:33:01.529Z,101136.50
2023-03-27T03:35:33.307Z,101144.84
2023-03-27T03:38:08.251Z,101145.53
2023-03-27T03:40:48.249Z,101136.53
2023-03-27T03:43:23.138Z,101144.72
2023-03-27T03:45:55.034Z,101131.81
2023-03-27T03:48:27.096Z,101142.41
2023-03-27T03:50:58.979Z,101136.75
2023-03-27T03:53:30.927Z,101140.56
2023-03-27T03:56:01.653Z,101137.69
2023-03-27T03:58:35.332Z,101119.25
2023-03-27T04:01:10.786Z,101138.22
2023-03-27T04:03:48.776Z,101139.75
2023-03-27T04:06:22.279Z,101144.00
2023-03-27T04:08:54.949Z,101133.22
2023-03-27T04:11:49.900Z,101123.34
2023-03-27T04:14:47.630Z,101124.25
2023-03-27T04:17:40.026Z,101119.69
2023-03-27T04:20:14.997Z,101116.03
2023-03-27T04:22:48.648Z,101113.50
2023-03-27T04:25:21.123Z,101104.50
2023-03-27T04:27:53.068Z,101088.72
2023-03-27T04:30:29.480Z,101115.28
2023-03-27T04:33:20.690Z,101114.13
2023-03-27T04:36:10.574Z,101126.81
2023-03-27T04:39:05.333Z,101115.28
2023-03-27T04:41:36.854Z,101134.50
2023-03-27T04:44:09.239Z,101131.69
2023-03-27T04:46:44.799Z,101133.19
2023-03-27T04:49:17.760Z,101126.53
2023-03-27T04:51:56.970Z,101135.53
2023-03-27T04:54:33.501Z,101122.88
2023-03-27T04:57:05.383Z,101142.63
2023-03-27T04:59:38.574Z,101137.00
2023-03-27T05:02:29.246Z,101146.38
2023-03-27T05:05:07.507Z,101133.38
2023-03-27T05:07:40.998Z,101141.97
2023-03-27T05:10:12.803Z,101138.56
2023-03-27T05:12:48.987Z,101122.59
2023-03-27T05:15:22.117Z,101128.13
2023-03-27T05:17:56.399Z,101127.81
2023-03-27T05:20:29.904Z,101098.75
2023-03-27T05:23:08.578Z,101127.13
2023-03-27T05:25:41.017Z,101132.91
2023-03-27T05:28:17.131Z,101132.00
2023-03-27T05:30:51.399Z,101132.84
2023-03-27T05:33:25.305Z,101140.91
2023-03-27T05:35:59.014Z,101134.31
2023-03-27T05:38:31.451Z,101136.59
2023-03-27T05:41:17.810Z,101136.00
2023-03-27T05:43:53.213Z,101133.84
2023-03-27T05:46:25.779Z,101139.91
2023-03-27T05:49:04.529Z,101140.22
2023-03-27T05:51:35.764Z,101139.44
2023-03-27T05:54:07.466Z,101138.88
2023-03-27T05:57:05.381Z,101152.84
2023-03-27T05:59:35.946Z,101138.81
2023-03-27T06:02:27.390Z,101136.72
2023-03-27T06:05:06.258Z,101131.69
2023-03-27T06:07:43.004Z,101129.22
2023-03-27T06:10:19.327Z,101137.75
2023-03-27T06:13:11.485Z,101126.00
2023-03-27T06:16:03.602Z,101142.78
2023-03-27T06:18:54.615Z,101147.13
2023-03-27T06:21:27.232Z,101152.19
2023-03-27T06:24:04.433Z,101144.63
2023-03-27T06:26:36.318Z,101144.50
2023-03-27T06:29:08.615Z,101144.63
2023-03-27T06:31:46.629Z,101141.91
2023-03-27T06:34:31.819Z,101125.03
2023-03-27T06:37:08.547Z,101134.94
2023-03-27T06:39:44.579Z,101135.22
2023-03-27T06:42:16.224Z,101140.41
2023-03-27T06:45:11.008Z,101139.38
2023-03-27T06:48:21.652Z,101135.63
2023-03-27T06:50:57.548Z,101138.41
2023-03-27T06:53:33.189Z,101134.25
2023-03-27T06:56:08.432Z,101134.84
2023-03-27T06:58:59.584Z,101119.06
2023-03-27T07:01:31.772Z,101145.22
2023-03-27T07:04:22.830Z,101150.94
2023-03-27T07:07:07.083Z,101149.81
2023-03-27T07:09:42.446Z,101159.09
2023-03-27T07:12:19.269Z,101149.22
2023-03-27T07:14:51.797Z,101148.13
2023-03-27T07:17:23.047Z,101146.31
2023-03-27T07:19:56.812Z,101155.03
2023-03-27T07:22:30.663Z,101159.09
2023-03-27T07:25:13.854Z,101163.75
2023-03-27T07:27:47.320Z,101166.75
2023-03-27T07:30:18.469Z,101170.81
2023-03-27T07:32:50.333Z,101162.41
2023-03-27T07:35:21.631Z,101163.97
2023-03-27T07:38:28.176Z,101167.53
2023-03-27T07:41:12.940Z,101166.25
2023-03-27T07:44:09.804Z,101168.69
2023-03-27T07:46:54.152Z,101163.50
2023-03-27T07:49:39.281Z,101168.97
2023-03-27T07:52:16.868Z,101170.59
2023-03-27T07:54:59.584Z,101133.00
2023-03-27T07:57:59.793Z,101143.38
2023-03-27T08:00:37.464Z,101167.63
2023-03-27T08:03:16.054Z,101163.78
2023-03-27T08:05:59.752Z,101172.50
2023-03-27T08:08:34.319Z,101163.25
2023-03-27T08:11:06.997Z,101154.53
2023-03-27T08:13:42.771Z,101171.94
2023-03-27T08:16:20.287Z,101152.91
2023-03-27T08:18:51.713Z,101160.25
2023-03-27T08:21:24.091Z,101172.22
2023-03-27T08:23:57.830Z,101159.69
2023-03-27T08:26:38.812Z,101176.28
2023-03-27T08:29:13.504Z,101176.56
2023-03-27T08:31:46.596Z,101184.44
2023-03-27T08:34:19.174Z,101190.97
2023-03-27T08:36:54.101Z,101188.25
2023-03-27T08:39:27.204Z,101190.72
2023-03-27T08:42:10.686Z,101187.16
2023-03-27T08:44:42.913Z,101180.38
2023-03-27T08:47:20.497Z,101191.47
2023-03-27T08:50:02.090Z,101192.03
2023-03-27T08:52:49.533Z,101195.81
2023-03-27T08:55:41.138Z,101195.25
2023-03-27T08:58:23.459Z,101188.72
2023-03-27T09:01:14.101Z,101192.84
2023-03-27T09:04:16.092Z,101184.94
2023-03-27T09:07:04.566Z,101187.38
2023-03-27T09:10:00.642Z,101191.75
2023-03-27T09:13:05.927Z,101185.19
2023-03-27T09:15:59.528Z,101194.44
2023-03-27T09:18:41.228Z,101186.56
2023-03-27T09:21:30.956Z,101196.09
2023-03-27T09:24:38.023Z,101197.16
2023-03-27T09:27:34.210Z,101196.06
2023-03-27T09:30:31.030Z,101202.06
2023-03-27T09:33:07.606Z,101205.59
2023-03-27T09:35:40.085Z,101217.25
2023-03-27T09:38:43.759Z,101215.63
2023-03-27T09:41:32.886Z,101213.72
2023-03-27T09:44:27.024Z,101212.13
2023-03-27T09:47:09.496Z,101204.47
2023-03-27T09:49:46.181Z,101208.00
2023-03-27T09:52:38.718Z,101214.50
2023-03-27T09:55:36.819Z,101194.25
2023-03-27T09:58:31.486Z,101212.75
2023-03-27T10:01:23.907Z,101209.75
2023-03-27T10:04:01.005Z,101211.06
2023-03-27T10:06:55.156Z,101213.81
2023-03-27T10:09:35.960Z,101215.69
2023-03-27T10:12:17.598Z,101211.31
2023-03-27T10:14:53.141Z,101209.59
2023-03-27T10:17:43.947Z,101202.81
2023-03-27T10:20:23.625Z,101209.59
2023-03-27T10:23:09.005Z,101208.97
2023-03-27T10:25:52.830Z,101206.31
2023-03-27T10:28:32.415Z,101201.72
2023-03-27T10:31:36.079Z,101204.50
2023-03-27T10:34:39.853Z,101201.19
2023-03-27T10:37:32.083Z,101211.81
2023-03-27T10:40:33.294Z,101194.41
2023-03-27T10:43:14.660Z,101199.03
2023-03-27T10:45:58.644Z,101203.59
2023-03-27T10:48:49.086Z,101198.50
2023-03-27T10:51:55.900Z,101200.66
2023-03-27T10:54:45.037Z,101194.16
2023-03-27T10:57:35.914Z,101185.91
2023-03-27T11:00:22.734Z,101176.34
2023-03-27T11:03:25.625Z,101181.50
2023-03-27T11:06:06.248Z,101180.34
2023-03-27T11:09:07.149Z,101177.09
2023-03-27T11:12:14.212Z,101173.84
2023-03-27T11:14:59.155Z,101185.19
2023-03-27T11:17:43.551Z,101180.72
2023-03-27T11:20:36.343Z,101174.72
2023-03-27T11:23:59.748Z,101164.28
2023-03-27T11:27:01.967Z,101163.94
2023-03-27T11:29:40.074Z,101181.38
2023-03-27T11:32:40.869Z,101172.38
2023-03-27T11:35:26.029Z,101165.50
2023-03-27T11:38:35.761Z,101155.72
2023-03-27T11:41:09.517Z,101152.13
2023-03-27T11:43:42.239Z,101165.84
2023-03-27T11:46:48.398Z,101163.28
2023-03-27T11:50:00.770Z,101169.72
2023-03-27T11:52:49.801Z,101165.44
2023-03-27T11:55:55.337Z,101166.72
2023-03-27T11:58:31.388Z,101175.97
2023-03-27T12:01:28.590Z,101168.56
2023-03-27T12:04:17.045Z,101171.13
2023-03-27T12:07:37.853Z,101165.25
2023-03-27T12:10:44.115Z,101163.63
2023-03-27T12:13:42.893Z,101156.91
2023-03-27T12:17:02.138Z,101156.72
2023-03-27T12:20:26.862Z,101139.94
2023-03-27T12:23:13.418Z,101139.13
2023-03-27T12:26:11.654Z,101141.19
2023-03-27T12:29:23.490Z,101143.50
2023-03-27T12:32:41.329Z,101140.13
2023-03-27T12:35:34.062Z,101140.38
2023-03-27T12:38:09.938Z,101135.00
2023-03-27T12:40:44.935Z,101144.03
2023-03-27T12:43:35.209Z,101126.44
2023-03-27T12:46:30.378Z,101145.53
2023-03-27T12:49:37.127Z,101149.94
2023-03-27T12:52:22.130Z,101142.50
2023-03-27T12:55:32.606Z,101133.84
2023-03-27T12:58:06.531Z,101134.19
2023-03-27T13:01:04.553Z,101129.69
2023-03-27T13:04:10.849Z,101110.50
2023-03-27T13:07:01.827Z,101111.03
2023-03-27T13:10:03.869Z,101115.63
2023-03-27T13:12:52.926Z,101109.09
2023-03-27T13:15:41.208Z,101113.47
2023-03-27T13:18:26.964Z,101122.59
2023-03-27T13:21:27.473Z,101112.78
2023-03-27T13:24:06.584Z,101109.22
2023-03-27T13:27:01.186Z,101100.56
2023-03-27T13:29:37.387Z,101089.97
2023-03-27T13:32:42.768Z,101091.00
2023-03-27T13:35:35.789Z,101084.63
2023-03-27T13:38:07.160Z,101082.88
2023-03-27T13:40:58.185Z,101094.09
2023-03-27T13:43:30.100Z,101097.63
2023-03-27T13:46:15.921Z,101102.03
2023-03-27T13:49:18.050Z,101098.59
2023-03-27T13:52:33.410Z,101084.75
2023-03-27T13:55:20.326Z,101089.28
2023-03-27T13:58:34.389Z,101071.78
2023-03-27T14:01:29.876Z,101065.69
2023-03-27T14:04:26.165Z,101071.16
2023-03-27T14:07:43.444Z,101067.63
2023-03-27T14:10:37.089Z,101051.94
2023-03-27T14:13:30.500Z,101045.19
2023-03-27T14:16:10.495Z,101013.69
2023-03-27T14:19:03.903Z,101033.78
2023-03-27T14:22:02.595Z,101026.44
2023-03-27T14:24:50.952Z,101031.88
2023-03-27T14:27:34.288Z,101031.25
2023-03-27T14:30:32.968Z,101040.56
2023-03-27T14:33:24.320Z,101039.22
2023-03-27T14:36:07.635Z,101035.44
2023-03-27T14:38:39.969Z,101022.13
2023-03-27T14:41:30.445Z,101013.72
2023-03-27T14:44:05.586Z,101015.00
2023-03-27T14:46:49.827Z,101008.16
2023-03-27T14:49:37.290Z,100997.00
2023-03-27T14:52:13.356Z,100993.22
2023-03-27T14:55:37.649Z,100996.00
2023-03-27T14:59:05.200Z,101019.47
2023-03-27T15:01:58.167Z,101028.09
2023-03-27T15:04:49.021Z,101018.69
2023-03-27T15:07:39.512Z,101019.78
2023-03-27T15:11:10.115Z,101016.78
2023-03-27T15:13:54.882Z,101017.84
2023-03-27T15:17:09.601Z,101017.66
2023-03-27T15:20:15.775Z,101024.69
2023-03-27T15:23:08.120Z,101027.63
2023-03-27T15:26:26.572Z,101027.91
2023-03-27T15:29:24.695Z,101037.84
2023-03-27T15:32:23.611Z,101027.47
2023-03-27T15:35:55.261Z,101034.94
2023-03-27T15:39:04.613Z,101041.94
2023-03-27T15:42:13.537Z,101034.09
2023-03-27T15:45:05.861Z,101035.59
2023-03-27T15:47:37.541Z,101038.69
2023-03-27T15:50:26.323Z,101032.78
2023-03-27T15:53:49.932Z,101027.22
2023-03-27T15:56:42.950Z,101038.16
2023-03-27T15:59:51.886Z,101036.81
2023-03-27T16:02:26.535Z,101043.03
2023-03-27T16:05:34.761Z,101036.00
2023-03-27T16:08:06.535Z,101042.34
2023-03-27T16:10:37.254Z,101043.09
2023-03-27T16:14:11.927Z,101052.34
2023-03-27T16:17:02.145Z,101027.50
2023-03-27T16:19:50.879Z,101038.53
2023-03-27T16:22:32.863Z,101028.94
2023-03-27T16:25:22.230Z,101004.69
2023-03-27T16:28:00.169Z,101033.53
2023-03-27T16:30:49.829Z,101024.06
2023-03-27T16:33:24.032Z,101029.78
2023-03-27T16:36:14.567Z,101030.56
2023-03-27T16:39:05.696Z,101032.50
2023-03-27T16:41:55.072Z,101030.91
2023-03-27T16:44:44.159Z,101032.88
2023-03-27T16:47:34.721Z,101020.94
2023-03-27T16:53:17.616Z,101029.41
2023-03-27T16:56:07.358Z,101027.78
2023-03-27T16:58:55.965Z,101032.91
2023-03-27T17:01:27.276Z,101040.50
2023-03-27T17:03:59.300Z,101014.75
2023-03-27T17:06:29.904Z,101039.16
2023-03-27T17:09:01.400Z,101020.91
2023-03-27T17:11:32.653Z,101034.03
2023-03-27T17:14:04.841Z,101036.44
2023-03-27T17:16:36.789Z,101041.84
2023-03-27T17:19:08.220Z,101039.97
2023-03-27T17:21:39.262Z,101033.41
2023-03-27T17:24:10.960Z,101034.88
2023-03-27T17:26:42.350Z,101028.31
2023-03-27T17:29:13.831Z,101016.09
2023-03-27T17:31:45.096Z,101024.22
2023-03-27T17:34:16.722Z,101028.09
2023-03-27T17:36:54.282Z,101027.63
2023-03-27T17:39:26.619Z,101022.97
2023-03-27T17:41:57.529Z,101039.19
2023-03-27T17:44:28.734Z,101038.72
2023-03-27T17:46:59.851Z,101046.34
2023-03-27T17:49:32.827Z,101038.44
2023-03-27T17:52:09.212Z,101030.88
2023-03-27T17:54:41.988Z,101030.88
2023-03-27T17:57:13.487Z,101022.75
2023-03-27T17:59:47.892Z,101021.94
2023-03-27T18:02:23.430Z,101015.84
2023-03-27T18:04:55.549Z,101019.75
2023-03-27T18:07:27.677Z,101016.72
2023-03-27T18:09:59.084Z,101031.94
2023-03-27T18:12:30.595Z,101028.53
2023-03-27T18:15:01.987Z,101019.84
2023-03-27T18:17:36.330Z,101032.41
2023-03-27T18:20:12.766Z,101022.31
2023-03-27T18:22:44.387Z,101042.00
2023-03-27T18:25:15.540Z,101011.63
2023-03-27T18:27:46.771Z,101037.25
2023-03-27T18:30:19.547Z,101043.56
2023-03-27T18:32:51.077Z,101050.91
2023-03-27T18:35:23.185Z,101051.97
2023-03-27T18:37:55.371Z,101061.47
2023-03-27T18:40:26.783Z,101061.47
2023-03-27T18:42:58.089Z,101051.44
2023-03-27T18:45:29.304Z,101038.13
2023-03-27T18:48:00.475Z,101044.13
2023-03-27T18:50:32.932Z,101038.44
2023-03-27T18:53:04.503Z,101048.53
2023-03-27T18:55:35.767Z,101026.25
2023-03-27T18:58:07.878Z,101025.78
2023-03-27T19:00:39.946Z,101026.66
2023-03-27T19:03:19.447Z,101021.22
2023-03-27T19:05:50.980Z,101045.78
2023-03-27T19:08:23.243Z,101013.78
2023-03-27T19:10:59.098Z,101019.84
2023-03-27T19:13:57.259Z,101017.38
2023-03-27T19:16:34.008Z,101008.44
2023-03-27T19:19:24.358Z,101005.34
2023-03-27T19:22:28.124Z,101025.34
2023-03-27T19:25:07.252Z,101005.22
2023-03-27T19:27:39.895Z,100993.41
2023-03-27T19:30:13.314Z,101009.41
2023-03-27T19:32:44.680Z,101007.91
2023-03-27T19:35:16.196Z,101012.03
2023-03-27T19:37:47.615Z,101006.84
2023-03-27T19:40:20.127Z,101020.69
2023-03-27T19:42:52.211Z,101013.06
2023-03-27T19:45:23.439Z,101005.13
2023-03-27T19:47:55.350Z,100993.66
2023-03-27T19:50:25.949Z,101001.09
2023-03-27T19:53:11.310Z,100997.75
2023-03-27T19:55:43.750Z,100990.75
2023-03-27T19:58:15.156Z,100993.75
2023-03-27T20:00:51.608Z,100998.38
2023-03-27T20:03:25.846Z,100974.50
2023-03-27T20:06:06.777Z,100998.09
2023-03-27T20:08:41.125Z,101002.63
2023-03-27T20:11:12.692Z,101011.69
2023-03-27T20:13:55.272Z,101014.66
2023-03-27T20:16:29.825Z,101026.66
2023-03-27T20:19:07.535Z,101026.91
2023-03-27T20:21:42.686Z,101010.31
2023-03-27T20:24:18.768Z,101019.28
2023-03-27T20:26:58.531Z,101016.03
2023-03-27T20:29:30.231Z,101026.63
2023-03-27T20:32:01.746Z,101007.06
2023-03-27T20:34:33.849Z,101028.59
2023-03-27T20:37:13.484Z,101036.44
2023-03-27T20:39:50.338Z,101031.53
2023-03-27T20:42:24.664Z,101036.19
2023-03-27T20:44:59.875Z,101029.63
2023-03-27T20:47:41.043Z,101040.22
2023-03-27T20:50:13.344Z,101034.06
2023-03-27T20:52:48.312Z,101019.97
2023-03-27T20:55:32.484Z,101014.63
2023-03-27T20:58:08.040Z,101005.25
2023-03-27T21:00:39.412Z,101002.63
2023-03-27T21:03:11.199Z,100982.84
2023-03-27T21:05:42.637Z,100988.78
2023-03-27T21:08:14.090Z,100972.38
2023-03-27T21:10:45.210Z,100988.16
2023-03-27T21:13:16.502Z,100983.69
2023-03-27T21:15:48.109Z,101007.28
2023-03-27T21:18:21.275Z,101014.47
2023-03-27T21:20:53.150Z,101018.19
2023-03-27T21:23:23.805Z,101025.44
2023-03-27T21:25:54.960Z,101016.44
2023-03-27T21:28:26.675Z,101014.59
2023-03-27T21:30:57.830Z,101018.69
2023-03-27T21:33:28.951Z,101016.91
2023-03-27T21:36:00.394Z,101009.16
2023-03-27T21:38:31.270Z,101001.91
2023-03-27T21:41:04.461Z,100998.28
2023-03-27T21:43:36.622Z,100996.19
2023-03-27T21:46:08.330Z,100994.09
2023-03-27T21:48:41.897Z,100976.41
2023-03-27T21:51:13.593Z,100981.41
2023-03-27T21:53:44.725Z,100979.72
2023-03-27T21:56:16.154Z,100969.84
2023-03-27T21:58:47.441Z,100971.50
2023-03-27T22:01:18.369Z,100971.59
2023-03-27T22:03:49.788Z,100967.72
2023-03-27T22:06:20.950Z,100946.19
2023-03-27T22:08:52.003Z,100958.16
2023-03-27T22:11:23.290Z,100958.59
2023-03-27T22:13:54.602Z,100974.53
2023-03-27T22:16:25.398Z,100960.88
2023-03-27T22:18:56.711Z,100964.28
2023-03-27T22:21:30.791Z,100962.44
2023-03-27T22:24:02.264Z,100960.56
2023-03-27T22:26:35.258Z,100955.22
2023-03-27T22:29:09.226Z,100968.50
2023-03-27T22:31:40.498Z,100953.97
2023-03-27T22:34:12.225Z,100965.19
2023-03-27T22:36:43.427Z,100966.91
2023-03-27T22:39:14.812Z,100966.25
2023-03-27T22:41:46.003Z,100965.63
2023-03-27T22:44:17.078Z,100968.00
2023-03-27T22:46:48.365Z,100968.88
2023-03-27T22:49:19.568Z,100955.56
2023-03-27T22:51:50.885Z,100948.97
2023-03-27T22:54:22.200Z,100946.38
2023-03-27T22:56:56.492Z,100946.69
2023-03-27T22:59:28.041Z,100936.03
2023-03-27T23:01:59.542Z,100956.91
2023-03-27T23:04:33.932Z,100944.81
2023-03-27T23:07:05.337Z,100950.09
2023-03-27T23:09:36.954Z,100952.69
2023-03-27T23:12:08.060Z,100949.88
2023-03-27T23:14:39.548Z,100944.47
2023-03-27T23:17:10.946Z,100935.97
2023-03-27T23:19:42.348Z,100929.66
2023-03-27T23:22:13.662Z,100947.09
2023-03-27T23:24:44.774Z,100940.50
2023-03-27T23:27:15.840Z,100936.97
2023-03-27T23:29:47.388Z,100922.31
2023-03-27T23:32:18.485Z,100918.28
2023-03-27T23:34:49.950Z,100921.41
2023-03-27T23:37:21.320Z,100926.28
2023-03-27T23:39:52.591Z,100924.47
2023-03-27T23:42:23.677Z,100917.44
2023-03-27T23:44:55.872Z,100926.66
2023-03-27T23:47:26.567Z,100917.09
2023-03-27T23:49:57.928Z,100919.28
2023-03-27T23:52:28.866Z,100913.72
2023-03-27T23:55:00.180Z,100910.44
2023-03-27T23:57:31.732Z,100895.31
